Gerald R. Ford International Airport
KGRR : now visible

Airfield :











YOU CAN JOIN US ON...

 
LOGIN :

Register | Disclaimer

   EN    FR    IT 

 









Legend :    VFR   Marginal VFR   IFR   Intensive IFR   Very Intensive IFR
Visi :
Ceiling :
>= 8 km
>= 3000ft
5 to 8 km
1000 to 3000 ft
1500m to 5 km
500 to 1000 ft
800 to 1500m
200 to 500 ft
< 800m
< 200 ft
Symbols :   Thunderstorms  Fog  Heavy snow  Heavy precipitations  Wind > 20 kt






- Airport Elevation : 794 ft
- IATA code : GRR


KGRR - Gerald R. Ford International

CURRENT METAR :
  • 230153Z 09005KT 1 3/4SM BR CLR 12/12 A2992 RMK AO2 SLP135 T01220122

EXPIRED METARs :
  • 230137Z 10006KT 1SM R26L/P6000FT BR CLR 13/13 A2993 RMK AO2 T01280128
  • 230053Z 11007KT 1/4SM R26L/4500V6000FT FG VV002 12/12 A2995 RMK AO2 SLP146 T01220122
  • 222353Z 10007KT 1/4SM R26L/2600V2800FT FG VV002 12/12 A2997 RMK AO2 SLP152 T01170117 10117 20083 57018

TAF KGRR
Valid from the 23 at 02:00 until the 24 at 00:00 UTC


230144Z 2302/2324 10006KT 2SM BR SKC
FM230300 14010KT P6SM SKC
FM231300 21012G20KT 2SM -SHRA BR VCTS OVC005CB
FM231600 28014G24KT 2SM -SHRA BR OVC008
FM231900 33013G22KT 3SM -SHRA BR OVC012
KZAU FIR / North America



MET'MAP, your aeronautical weather chart ! - Copyright ORBIFLY December 2007 - Disclaimer

ORBIFLY MET'MAP TEAM :

Programming & Development : Alexandra Zaïnal
Concept & original design : Baudouin d'Aumeries
Assistance for programming : Marc-Olivier Méhu
Technical & hardware support : Manuel Goepfert

Contact : metmap@orbifly.com




SOURCES & CREDITS :

   NOAA       Earth
Advisory